createdAt,value
2019-03-20T00:00:45.292Z,8.15
2019-03-20T00:03:14.864Z,11.53
2019-03-20T00:05:47.124Z,8.45
2019-03-20T00:08:16.634Z,5.85
2019-03-20T00:10:46.125Z,10.03
2019-03-20T00:13:15.769Z,9.63
2019-03-20T00:15:45.338Z,7.78
2019-03-20T00:18:14.941Z,9.70
2019-03-20T00:20:44.586Z,14.07
2019-03-20T00:23:16.829Z,18.77
2019-03-20T00:25:46.413Z,11.50
2019-03-20T00:28:16.999Z,12.05
2019-03-20T00:30:46.651Z,17.73
2019-03-20T00:33:16.229Z,12.05
2019-03-20T00:35:45.811Z,12.40
2019-03-20T00:38:15.390Z,9.35
2019-03-20T00:40:45.024Z,8.95
2019-03-20T00:43:14.658Z,23.90
2019-03-20T00:45:44.152Z,10.03
2019-03-20T00:48:14.205Z,7.30
2019-03-20T00:50:44.044Z,9.03
2019-03-20T00:53:13.558Z,3.22
2019-03-20T00:55:43.124Z,13.58
2019-03-20T00:58:12.640Z,10.72
2019-03-20T01:00:42.236Z,3.72
2019-03-20T01:03:11.898Z,9.40
2019-03-20T01:05:41.481Z,8.10
2019-03-20T01:08:11.052Z,8.13
2019-03-20T01:10:40.620Z,9.75
2019-03-20T01:13:10.884Z,12.85
2019-03-20T01:15:40.436Z,8.73
2019-03-20T01:18:09.951Z,10.53
2019-03-20T01:20:39.469Z,11.10
2019-03-20T01:23:08.975Z,13.35
2019-03-20T01:25:39.027Z,7.50
2019-03-20T01:28:08.556Z,15.78
2019-03-20T01:30:39.727Z,9.38
2019-03-20T01:33:16.755Z,14.85
2019-03-20T01:35:46.299Z,13.98
2019-03-20T01:38:15.815Z,5.00
2019-03-20T01:40:45.368Z,11.48
2019-03-20T01:43:14.951Z,8.03
2019-03-20T01:45:44.524Z,11.22
2019-03-20T01:48:14.059Z,4.30
2019-03-20T01:50:43.837Z,9.98
2019-03-20T01:53:16.252Z,9.08
2019-03-20T01:55:45.909Z,3.72
2019-03-20T01:58:15.439Z,17.35
2019-03-20T02:00:45.011Z,12.03
2019-03-20T02:03:14.562Z,11.03
2019-03-20T02:05:44.164Z,6.12
2019-03-20T02:08:14.356Z,9.33
2019-03-20T02:10:43.974Z,20.90
2019-03-20T02:13:13.643Z,11.03
2019-03-20T02:15:43.157Z,5.37
2019-03-20T02:18:13.500Z,3.70
2019-03-20T02:20:43.034Z,8.53
2019-03-20T02:23:15.412Z,11.63
2019-03-20T02:25:44.950Z,12.55
2019-03-20T02:28:14.483Z,12.73
2019-03-20T02:30:44.074Z,6.28
2019-03-20T02:33:14.727Z,4.53
2019-03-20T02:35:51.499Z,18.73
2019-03-20T02:38:15.521Z,5.90
2019-03-20T02:40:45.086Z,3.33
2019-03-20T02:43:14.633Z,7.97
2019-03-20T02:45:44.242Z,7.95
2019-03-20T02:48:13.786Z,10.05
2019-03-20T02:50:43.377Z,11.05
2019-03-20T02:53:12.893Z,10.58
2019-03-20T02:55:42.515Z,5.85
2019-03-20T02:58:12.070Z,2.90
2019-03-20T03:00:41.637Z,9.85
2019-03-20T03:03:11.258Z,18.80
2019-03-20T03:05:40.838Z,11.78
2019-03-20T03:08:10.492Z,7.03
2019-03-20T03:10:40.163Z,4.62
2019-03-20T03:13:09.737Z,11.70
2019-03-20T03:15:39.370Z,3.85
2019-03-20T03:18:09.404Z,9.73
2019-03-20T03:20:39.001Z,11.60
2019-03-20T03:23:08.589Z,5.75
2019-03-20T03:25:38.156Z,4.40
2019-03-20T03:28:07.755Z,16.50
2019-03-20T03:30:37.336Z,9.75
2019-03-20T03:33:06.977Z,7.22
2019-03-20T03:35:36.472Z,8.80
2019-03-20T03:38:06.139Z,3.60
2019-03-20T03:40:35.819Z,12.98
2019-03-20T03:43:07.872Z,14.35
2019-03-20T03:45:37.418Z,4.00
2019-03-20T03:48:06.942Z,6.55
2019-03-20T03:50:36.459Z,12.63
2019-03-20T03:53:06.847Z,5.65
2019-03-20T03:55:36.432Z,4.55
2019-03-20T03:58:06.085Z,3.30
2019-03-20T04:00:36.118Z,3.60
2019-03-20T04:03:05.796Z,4.45
2019-03-20T04:05:35.450Z,4.28
2019-03-20T04:08:05.189Z,6.37
2019-03-20T04:10:34.776Z,7.85
2019-03-20T04:13:04.356Z,6.83
2019-03-20T04:15:36.403Z,10.68
2019-03-20T04:18:05.283Z,6.05
2019-03-20T04:20:34.793Z,17.55
2019-03-20T04:23:04.976Z,4.12
2019-03-20T04:25:34.824Z,8.15
2019-03-20T04:28:04.460Z,9.83
2019-03-20T04:30:33.988Z,20.60
2019-03-20T04:33:03.585Z,16.40
2019-03-20T04:35:33.131Z,7.95
2019-03-20T04:38:02.797Z,14.28
2019-03-20T04:40:32.286Z,3.85
2019-03-20T04:43:13.778Z,9.13
2019-03-20T04:45:43.607Z,14.23
2019-03-20T04:48:13.207Z,8.68
2019-03-20T04:50:42.864Z,16.37
2019-03-20T04:53:12.379Z,10.75
2019-03-20T04:55:41.975Z,11.53
2019-03-20T04:58:11.586Z,8.00
2019-03-20T05:00:41.166Z,15.15
2019-03-20T05:03:10.694Z,20.95
2019-03-20T05:05:40.393Z,8.53
2019-03-20T05:08:09.925Z,9.70
2019-03-20T05:10:39.535Z,11.57
2019-03-20T05:13:09.078Z,8.25
2019-03-20T05:15:38.626Z,5.70
2019-03-20T05:18:08.255Z,18.17
2019-03-20T05:20:38.000Z,16.12
2019-03-20T05:23:08.572Z,8.63
2019-03-20T05:25:38.191Z,12.88
2019-03-20T05:28:12.004Z,16.85
2019-03-20T05:30:41.547Z,17.37
2019-03-20T05:33:11.132Z,8.23
2019-03-20T05:35:40.739Z,16.15
2019-03-20T05:38:10.349Z,14.35
2019-03-20T05:40:39.945Z,24.75
2019-03-20T05:43:09.584Z,13.55
2019-03-20T05:45:39.154Z,11.88
2019-03-20T05:48:08.700Z,17.15
2019-03-20T05:50:38.337Z,22.22
2019-03-20T05:53:07.977Z,13.15
2019-03-20T05:55:37.550Z,23.60
2019-03-20T05:58:09.731Z,18.60
2019-03-20T06:00:39.303Z,17.75
2019-03-20T06:03:08.969Z,21.05
2019-03-20T06:05:38.543Z,26.48
2019-03-20T06:08:08.231Z,24.60
2019-03-20T06:10:38.027Z,33.53
2019-03-20T06:13:07.638Z,21.97
2019-03-20T06:15:37.172Z,19.45
2019-03-20T06:18:06.800Z,20.08
2019-03-20T06:20:36.371Z,19.62
2019-03-20T06:23:05.911Z,22.32
2019-03-20T06:25:35.453Z,20.65
2019-03-20T06:28:05.155Z,20.60
2019-03-20T06:30:34.827Z,27.13
2019-03-20T06:33:06.350Z,27.37
2019-03-20T06:35:36.608Z,25.80
2019-03-20T06:38:06.277Z,33.73
2019-03-20T06:40:35.931Z,20.40
2019-03-20T06:43:05.577Z,25.37
2019-03-20T06:45:35.162Z,20.80
2019-03-20T06:48:04.976Z,26.77
2019-03-20T06:50:34.542Z,22.07
2019-03-20T06:53:04.115Z,24.77
2019-03-20T06:55:33.630Z,23.50
2019-03-20T06:58:03.783Z,22.57
2019-03-20T07:00:55.376Z,37.47
2019-03-20T07:03:41.736Z,28.10
2019-03-20T07:06:47.941Z,25.13
2019-03-20T07:09:37.120Z,32.33
2019-03-20T07:12:06.646Z,33.30
2019-03-20T07:14:36.264Z,34.10
2019-03-20T07:17:05.966Z,28.10
2019-03-20T07:19:35.966Z,33.70
2019-03-20T07:22:05.564Z,38.93
2019-03-20T07:24:35.274Z,30.33
2019-03-20T07:27:04.885Z,34.53
2019-03-20T07:29:34.445Z,32.33
2019-03-20T07:32:03.987Z,28.20
2019-03-20T07:34:33.514Z,46.40
2019-03-20T07:37:03.038Z,34.23
2019-03-20T07:39:32.956Z,36.73
2019-03-20T07:42:02.562Z,34.30
2019-03-20T07:44:32.166Z,40.27
2019-03-20T07:47:01.864Z,37.23
2019-03-20T07:49:31.465Z,34.50
2019-03-20T07:52:01.058Z,34.13
2019-03-20T07:54:54.814Z,42.17
2019-03-20T07:57:24.870Z,41.77
2019-03-20T07:59:54.395Z,38.97
2019-03-20T08:02:24.085Z,43.33
2019-03-20T08:04:53.742Z,39.07
2019-03-20T08:07:23.431Z,41.30
2019-03-20T08:09:53.059Z,42.27
2019-03-20T08:12:22.649Z,50.20
2019-03-20T08:14:52.242Z,39.77
2019-03-20T08:17:22.434Z,40.53
2019-03-20T08:19:52.083Z,47.13
2019-03-20T08:22:21.616Z,50.37
2019-03-20T08:24:51.170Z,36.80
2019-03-20T08:27:20.728Z,38.07
2019-03-20T08:29:50.275Z,48.03
2019-03-20T08:32:19.866Z,40.27
2019-03-20T08:34:49.370Z,46.33
2019-03-20T08:37:18.876Z,39.30
2019-03-20T08:39:48.724Z,40.90
2019-03-20T08:42:18.233Z,50.80
2019-03-20T08:44:47.894Z,41.00
2019-03-20T08:47:17.553Z,35.63
2019-03-20T08:49:47.150Z,39.10
2019-03-20T08:52:16.760Z,40.40
2019-03-20T08:54:46.373Z,34.13
2019-03-20T08:57:15.913Z,42.20
2019-03-20T08:59:45.896Z,39.07
2019-03-20T09:02:15.629Z,37.87
2019-03-20T09:04:45.195Z,43.47
2019-03-20T09:07:14.795Z,35.90
2019-03-20T09:09:44.331Z,36.17
2019-03-20T09:12:13.857Z,50.47
2019-03-20T09:14:43.398Z,51.77
2019-03-20T09:17:13.026Z,35.70
2019-03-20T09:19:42.556Z,43.20
2019-03-20T09:22:12.060Z,42.83
2019-03-20T09:24:41.659Z,43.83
2019-03-20T09:27:11.240Z,48.33
2019-03-20T09:29:41.242Z,46.47
2019-03-20T09:32:11.096Z,34.37
2019-03-20T09:34:40.620Z,35.37
2019-03-20T09:37:10.214Z,35.20
2019-03-20T09:39:39.790Z,35.53
2019-03-20T09:42:09.372Z,39.00
2019-03-20T09:44:38.917Z,35.50
2019-03-20T09:47:08.768Z,27.30
2019-03-20T09:49:38.286Z,30.33
2019-03-20T09:52:07.898Z,28.07
2019-03-20T09:54:37.536Z,39.87
2019-03-20T09:57:07.034Z,30.93
2019-03-20T09:59:36.702Z,29.70
2019-03-20T10:02:06.864Z,36.03
2019-03-20T10:04:36.406Z,30.67
2019-03-20T10:07:06.080Z,28.87
2019-03-20T10:09:36.116Z,36.63
2019-03-20T10:12:06.243Z,25.90
2019-03-20T10:14:35.896Z,33.90
2019-03-20T10:17:05.609Z,29.30
2019-03-20T10:19:35.131Z,31.40
2019-03-20T10:22:04.719Z,30.30
2019-03-20T10:24:34.287Z,38.30
2019-03-20T10:27:04.257Z,30.47
2019-03-20T10:29:34.265Z,27.00
2019-03-20T10:32:05.966Z,31.97
2019-03-20T10:34:39.435Z,38.13
2019-03-20T10:37:06.887Z,27.10
2019-03-20T10:39:36.637Z,27.63
2019-03-20T10:42:06.222Z,33.00
2019-03-20T10:44:35.829Z,28.47
2019-03-20T10:47:05.637Z,33.13
2019-03-20T10:49:35.237Z,36.13
2019-03-20T10:52:05.039Z,36.17
2019-03-20T10:54:36.661Z,32.73
2019-03-20T10:57:06.394Z,31.50
2019-03-20T10:59:36.123Z,31.10
2019-03-20T11:02:06.300Z,25.03
2019-03-20T11:04:35.806Z,30.77
2019-03-20T11:07:06.048Z,32.63
2019-03-20T11:09:35.697Z,29.13
2019-03-20T11:12:05.463Z,26.17
2019-03-20T11:14:35.108Z,27.63
2019-03-20T11:17:05.013Z,23.57
2019-03-20T11:19:34.833Z,23.60
2019-03-20T11:22:04.590Z,23.67
2019-03-20T11:24:34.252Z,27.67
2019-03-20T11:27:03.906Z,32.23
2019-03-20T11:29:33.683Z,21.47
2019-03-20T11:32:03.321Z,29.40
2019-03-20T11:34:32.996Z,36.60
2019-03-20T11:37:02.758Z,37.87
2019-03-20T11:39:32.581Z,30.57
2019-03-20T11:42:02.195Z,27.03
2019-03-20T11:44:31.731Z,36.53
2019-03-20T11:47:01.565Z,30.60
2019-03-20T11:49:31.185Z,29.57
2019-03-20T11:52:00.712Z,30.33
2019-03-20T11:54:30.262Z,28.20
2019-03-20T11:56:59.906Z,30.37
2019-03-20T11:59:29.421Z,28.97
2019-03-20T12:01:59.069Z,36.83
2019-03-20T12:04:28.603Z,35.23
2019-03-20T12:06:58.213Z,33.07
2019-03-20T12:09:27.816Z,37.07
2019-03-20T12:11:57.496Z,37.70
2019-03-20T12:14:27.122Z,33.80
2019-03-20T12:16:56.816Z,34.17
2019-03-20T12:19:26.383Z,37.90
2019-03-20T12:21:55.898Z,40.53
2019-03-20T12:24:25.566Z,58.47
2019-03-20T12:26:55.153Z,49.23
2019-03-20T12:29:24.780Z,40.87
2019-03-20T12:31:54.818Z,57.63
2019-03-20T12:34:24.351Z,42.60
2019-03-20T12:36:56.490Z,39.97
2019-03-20T12:39:25.509Z,42.27
2019-03-20T12:41:55.167Z,35.93
2019-03-20T12:44:24.775Z,31.10
2019-03-20T12:46:54.944Z,34.87
2019-03-20T12:49:24.635Z,39.53
2019-03-20T12:51:54.207Z,41.10
2019-03-20T12:54:23.822Z,50.27
2019-03-20T12:56:53.350Z,38.53
2019-03-20T12:59:22.954Z,36.40
2019-03-20T13:01:52.596Z,37.40
2019-03-20T13:04:22.677Z,37.67
2019-03-20T13:06:55.238Z,36.53
2019-03-20T13:09:24.870Z,52.40
2019-03-20T13:11:54.551Z,40.73
2019-03-20T13:14:24.134Z,29.43
2019-03-20T13:16:53.770Z,41.43
2019-03-20T13:19:23.427Z,40.27
2019-03-20T13:21:53.098Z,44.23
2019-03-20T13:24:22.955Z,45.10
2019-03-20T13:26:52.537Z,58.03
2019-03-20T13:29:22.211Z,52.57
2019-03-20T13:31:55.399Z,47.93
2019-03-20T13:34:24.992Z,59.53
2019-03-20T13:36:55.193Z,56.57
2019-03-20T13:39:24.858Z,52.63
2019-03-20T13:41:54.416Z,52.70
2019-03-20T13:44:24.026Z,53.97
2019-03-20T13:46:53.668Z,52.40
2019-03-20T13:49:23.197Z,53.17
2019-03-20T13:51:52.808Z,57.00
2019-03-20T13:54:22.636Z,48.40
2019-03-20T13:56:52.355Z,55.97
2019-03-20T13:59:21.944Z,54.80
2019-03-20T14:01:51.571Z,58.70
2019-03-20T14:04:21.345Z,62.70
2019-03-20T14:06:50.922Z,69.40
2019-03-20T14:09:20.666Z,49.60
2019-03-20T14:11:50.199Z,59.87
2019-03-20T14:14:19.819Z,56.00
2019-03-20T14:16:49.528Z,55.43
2019-03-20T14:19:19.133Z,52.20
2019-03-20T14:21:48.738Z,51.10
2019-03-20T14:24:18.456Z,51.77
2019-03-20T14:26:48.134Z,43.47
2019-03-20T14:29:17.749Z,57.67
2019-03-20T14:31:47.438Z,51.77
2019-03-20T14:34:17.039Z,54.80
2019-03-20T14:36:46.710Z,56.53
2019-03-20T14:39:16.350Z,57.73
2019-03-20T14:41:46.066Z,53.70
2019-03-20T14:44:15.597Z,57.47
2019-03-20T14:46:45.283Z,52.30
2019-03-20T14:49:14.884Z,68.73
2019-03-20T14:51:44.497Z,58.37
2019-03-20T14:54:14.097Z,59.93
2019-03-20T14:56:43.820Z,47.80
2019-03-20T14:59:13.369Z,52.47
2019-03-20T15:01:43.381Z,61.23
2019-03-20T15:04:13.483Z,62.93
2019-03-20T15:06:43.194Z,56.70
2019-03-20T15:09:13.084Z,49.20
2019-03-20T15:11:43.787Z,46.57
2019-03-20T15:14:13.427Z,59.60
2019-03-20T15:16:43.049Z,66.10
2019-03-20T15:19:12.762Z,56.50
2019-03-20T15:21:42.514Z,52.60
2019-03-20T15:24:12.585Z,55.90
2019-03-20T15:26:42.194Z,56.10
2019-03-20T15:29:11.726Z,47.53
2019-03-20T15:31:41.353Z,55.90
2019-03-20T15:34:10.987Z,47.87
2019-03-20T15:36:40.924Z,56.43
2019-03-20T15:39:10.532Z,57.70
2019-03-20T15:41:40.061Z,50.90
2019-03-20T15:44:09.756Z,47.20
2019-03-20T15:46:40.023Z,56.23
2019-03-20T15:49:09.543Z,57.47
2019-03-20T15:51:40.750Z,54.83
2019-03-20T15:54:10.418Z,52.93
2019-03-20T15:56:40.020Z,53.93
2019-03-20T15:59:09.580Z,53.53
2019-03-20T16:01:39.189Z,50.43
2019-03-20T16:04:08.995Z,51.80
2019-03-20T16:06:38.538Z,48.77
2019-03-20T16:09:09.928Z,58.47
2019-03-20T16:11:39.515Z,61.43
2019-03-20T16:14:09.252Z,51.03
2019-03-20T16:16:38.867Z,54.87
2019-03-20T16:19:08.584Z,60.03
2019-03-20T16:21:38.226Z,54.40
2019-03-20T16:24:07.863Z,49.77
2019-03-20T16:26:37.551Z,53.10
2019-03-20T16:29:07.183Z,59.83
2019-03-20T16:31:39.729Z,53.90
2019-03-20T16:34:09.335Z,57.87
2019-03-20T16:36:38.874Z,58.27
2019-03-20T16:39:30.130Z,53.50
2019-03-20T16:41:59.820Z,58.57
2019-03-20T16:44:30.625Z,60.43
2019-03-20T16:47:00.717Z,60.60
2019-03-20T16:49:30.467Z,51.80
2019-03-20T16:52:00.189Z,61.67
2019-03-20T16:54:29.845Z,57.83
2019-03-20T16:56:59.870Z,65.10
2019-03-20T16:59:29.673Z,51.90
2019-03-20T17:02:02.785Z,54.50
2019-03-20T17:04:32.942Z,60.03
2019-03-20T17:07:02.663Z,59.33
2019-03-20T17:09:32.260Z,54.97
2019-03-20T17:12:01.841Z,56.20
2019-03-20T17:14:31.522Z,60.20
2019-03-20T17:17:01.248Z,76.20
2019-03-20T17:19:30.970Z,60.87
2019-03-20T17:22:00.648Z,66.93
2019-03-20T17:24:31.588Z,54.33
2019-03-20T17:27:01.277Z,67.57
2019-03-20T17:29:31.413Z,88.27
2019-03-20T17:32:01.461Z,62.87
2019-03-20T17:34:31.253Z,57.07
2019-03-20T17:37:01.072Z,64.27
2019-03-20T17:39:30.710Z,58.73
2019-03-20T17:42:00.381Z,65.43
2019-03-20T17:44:30.021Z,59.67
2019-03-20T17:47:00.317Z,64.03
2019-03-20T17:49:30.048Z,68.17
2019-03-20T17:51:59.765Z,60.80
2019-03-20T17:54:48.878Z,73.50
2019-03-20T17:57:18.653Z,52.47
2019-03-20T17:59:48.809Z,56.17
2019-03-20T18:02:24.787Z,70.30
2019-03-20T18:04:54.567Z,62.50
2019-03-20T18:07:24.299Z,65.00
2019-03-20T18:09:54.004Z,57.27
2019-03-20T18:12:23.946Z,53.13
2019-03-20T18:14:55.310Z,62.70
2019-03-20T18:17:27.816Z,64.20
2019-03-20T18:19:57.415Z,69.43
2019-03-20T18:22:27.023Z,68.30
2019-03-20T18:24:56.647Z,62.33
2019-03-20T18:27:27.535Z,65.23
2019-03-20T18:29:57.218Z,69.20
2019-03-20T18:32:27.011Z,67.27
2019-03-20T18:34:56.644Z,73.43
2019-03-20T18:37:27.219Z,63.80
2019-03-20T18:39:57.186Z,76.60
2019-03-20T18:42:27.347Z,74.83
2019-03-20T18:44:56.973Z,66.90
2019-03-20T18:47:26.838Z,68.23
2019-03-20T18:49:56.569Z,82.33
2019-03-20T18:52:26.277Z,87.70
2019-03-20T18:54:56.045Z,74.40
2019-03-20T18:57:25.788Z,76.17
2019-03-20T18:59:55.394Z,62.90
2019-03-20T19:02:26.069Z,69.50
2019-03-20T19:04:56.026Z,63.47
2019-03-20T19:07:26.148Z,70.43
2019-03-20T19:09:56.051Z,72.77
2019-03-20T19:12:25.984Z,68.17
2019-03-20T19:14:55.873Z,70.97
2019-03-20T19:17:25.642Z,73.87
2019-03-20T19:19:55.275Z,69.33
2019-03-20T19:22:24.966Z,77.23
2019-03-20T19:24:54.817Z,72.70
2019-03-20T19:27:24.386Z,70.00
2019-03-20T19:29:53.978Z,75.37
2019-03-20T19:32:23.641Z,71.10
2019-03-20T19:34:53.241Z,66.30
2019-03-20T19:37:22.837Z,76.70
2019-03-20T19:39:52.464Z,73.90
2019-03-20T19:42:22.199Z,76.00
2019-03-20T19:44:52.058Z,90.50
2019-03-20T19:47:21.803Z,91.13
2019-03-20T19:49:51.402Z,82.27
2019-03-20T19:52:21.253Z,77.73
2019-03-20T19:54:51.140Z,83.53
2019-03-20T19:57:21.357Z,87.10
2019-03-20T19:59:51.001Z,93.27
2019-03-20T20:02:20.668Z,86.57
2019-03-20T20:04:50.278Z,82.40
2019-03-20T20:07:19.892Z,77.83
2019-03-20T20:09:50.042Z,83.30
2019-03-20T20:12:30.595Z,85.80
2019-03-20T20:14:50.950Z,83.60
2019-03-20T20:17:20.635Z,86.20
2019-03-20T20:19:50.263Z,95.70
2019-03-20T20:22:19.879Z,81.33
2019-03-20T20:24:49.520Z,101.80
2019-03-20T20:27:19.228Z,94.93
2019-03-20T20:29:48.767Z,96.20
2019-03-20T20:32:20.355Z,94.57
2019-03-20T20:34:49.905Z,86.00
2019-03-20T20:37:19.552Z,91.27
2019-03-20T20:39:49.455Z,97.70
2019-03-20T20:42:19.159Z,96.73
2019-03-20T20:44:48.976Z,109.63
2019-03-20T20:47:18.562Z,94.03
2019-03-20T20:49:48.199Z,92.47
2019-03-20T20:52:19.600Z,89.73
2019-03-20T20:54:49.820Z,97.67
2019-03-20T20:57:19.438Z,106.33
2019-03-20T20:59:49.132Z,97.60
2019-03-20T21:02:18.843Z,96.40
2019-03-20T21:04:48.462Z,97.80
2019-03-20T21:07:17.999Z,87.57
2019-03-20T21:09:47.641Z,92.23
2019-03-20T21:12:17.763Z,96.53
2019-03-20T21:14:47.290Z,101.50
2019-03-20T21:17:22.351Z,105.20
2019-03-20T21:19:52.169Z,93.83
2019-03-20T21:22:35.212Z,93.00
2019-03-20T21:25:05.930Z,103.03
2019-03-20T21:28:30.514Z,101.33
2019-03-20T21:31:04.833Z,101.93
2019-03-20T21:34:01.319Z,121.27
2019-03-20T21:36:38.390Z,96.13
2019-03-20T21:39:10.354Z,101.17
2019-03-20T21:42:01.131Z,98.50
2019-03-20T21:45:16.093Z,103.90
2019-03-20T21:47:46.012Z,101.60
2019-03-20T21:50:53.887Z,95.13
2019-03-20T21:54:08.905Z,105.93
2019-03-20T21:57:01.111Z,107.83
2019-03-20T21:59:44.238Z,115.30
2019-03-20T22:03:05.223Z,108.20
2019-03-20T22:06:04.920Z,101.83
2019-03-20T22:08:36.665Z,116.23
2019-03-20T22:11:34.418Z,117.30
2019-03-20T22:14:14.177Z,100.20
2019-03-20T22:17:15.136Z,115.43
2019-03-20T22:20:07.355Z,105.73
2019-03-20T22:22:53.283Z,123.20
2019-03-20T22:25:58.308Z,116.03
2019-03-20T22:29:01.182Z,109.77
2019-03-20T22:31:35.526Z,106.77
2019-03-20T22:34:35.343Z,121.53
2019-03-20T22:37:05.059Z,102.53
2019-03-20T22:40:15.943Z,112.57
2019-03-20T22:43:17.137Z,110.60
2019-03-20T22:46:19.762Z,109.10
2019-03-20T22:49:18.009Z,113.27
2019-03-20T22:52:12.048Z,124.70
2019-03-20T22:55:12.857Z,112.03
2019-03-20T22:57:59.935Z,115.60
2019-03-20T23:00:31.927Z,112.80
2019-03-20T23:03:39.681Z,116.13
2019-03-20T23:06:09.545Z,113.83
2019-03-20T23:08:40.911Z,119.23
2019-03-20T23:11:10.782Z,137.77
2019-03-20T23:13:41.721Z,138.53
2019-03-20T23:16:16.198Z,131.97
2019-03-20T23:18:45.954Z,118.63
2019-03-20T23:21:18.096Z,122.37
2019-03-20T23:23:47.818Z,129.87
2019-03-20T23:26:17.600Z,122.17
2019-03-20T23:28:47.299Z,115.20
2019-03-20T23:31:17.153Z,109.50
2019-03-20T23:33:46.929Z,141.60
2019-03-20T23:36:18.136Z,129.17
2019-03-20T23:38:48.147Z,114.27
2019-03-20T23:41:17.909Z,136.70
2019-03-20T23:43:52.804Z,126.20
2019-03-20T23:46:19.204Z,124.43
2019-03-20T23:49:11.322Z,133.60
2019-03-20T23:51:41.251Z,136.57
2019-03-20T23:54:12.262Z,127.40
2019-03-20T23:56:43.374Z,139.40
2019-03-20T23:59:14.567Z,130.90
